Timeline UpdatesTrip UpdatesNews PostsPvt Posts♥♥Travel TipsAdmin PostsConv PostsFollowed PostsChat RequestsBlog PostsPNR Posts

Disclaimer
Search
 
 
Sat Nov 1, 2014 09:36:31 ISTHomeTrainsΣChainsAtlasPNRForumGalleryNewsFAQTripsMembersLoginFeedback
No Recent News for this Train
Other Trains in the News **new
Latest...
⇐ Return Journey: Train# 53043

53044/Rajgir - Howrah Fast Passenger (UnReserved)

Time-Table HAS CHANGED.
Sep 03 2014 (12:25AM)
Change Departure Station:
Change Arrival Station:
Post a Train Travel TipPost a Train Travel Tip **new
Post a Comment/Question/Picture/VideoPost a Comment/Question/Picture/Video
Pantry/Catering
✕ NO Pantry Car
✕ NO Catering
RSA - Rake Sharing
Rake/Coach Composition
Loco
HWH WDM 3A/3D
News    PNR    Forum    Time-Table    Availability    Fare Chart    Map    Arr/Dep History    Trips    Gallery    ΣChains    X/O    Timeline    
Travel Time: 23h 30m    72 halts    Distance: 657 km    Avg Speed: 27 km/hr
Type: Passenger
Zone: ER/Eastern
Departs @ 12:40 (Avg 1h 20m late)
Platform# ???
SMTWTFS
Rajgir/RGD 
Arrives @ 12:10 +1 night (Avg 2h 14m late)
Platform# 1
SMTWTFS
Kolkata Howrah Junction/HWH 

72 halts. 158 intermediate Stations between Rajgir and Kolkata Howrah Junction

Show ALL intermediate Stations  Show Old Time-Table

#TrkCodeStation NameX/OArrivesAvgDepartsAvgHaltPFDay#KmSpeedElevZoneAddress
1|--|RGDRajgir (3)»  -12:40+1:20--10.03871mECRRajgir, Bihar
2|--|NLDNalanda (2)  12:58+1:3012:59+1:351m--111.34063mECRNational Highway 82, Bihar
3|--|BEHSBihar Sharif (2)  13:18+1:4313:23+1:505m--123.83656mECR06112-222306, Bihar
4|--|WENAWena (2)  13:46+1:4713:47+1:481m--137.8947mECRWena, Bihar
5|--|HRTHarnaut (3)X  14:21+1:3514:28+1:367m--142.95349mECRHarnaut, Bihar
6|--|BKPBakhtiyarpur Junction (5)XO  14:40+1:2615:10+2:0430m--153.66851mECRPatna, Bihar
7/==/ATLAthmal Gola (2)  15:18+2:3515:19+2:351m--162.65052mECRPatna, Bihar
8/==/BARHBarh (3)X  15:30+1:4415:32+1:492m--171.77749mECRBarh, Bihar
9/==/PHKPunarakh (2)  15:40+2:5015:41+2:501m--181.92951mECRPunarakh, Bihar
10/==/MORMor (2)XO  15:58+2:5016:27+2:3529m--190.14946mECRMor, Bihar
11/==/MKAMokama Junction (4)  16:36+1:2916:40+1:284m--197.45648mECRPatna, Bihar
12/==/HTZHathidah Junction (2)X  16:49+2:2216:51+2:222m11105.84650mECRMusahari, Bihar
13/==/RDUMRampur Dumra (3)OO  16:56+2:3816:57+2:391m--1109.63746mECRNational Highway 80, Bihar
14/==/BRYABarhiya (3)  17:06+1:5117:08+1:522m--1115.22247mECRBarahiya, Bihar
15/==/MKBMankatha  17:34+2:3117:40+2:286m--1124.63047mECRNational Highway 80, Bihar
16/==/LKRLuckeesarai Junction (2)X  17:51+2:3517:53+2:352m--1130.21252mECRLakhisarai, Bihar
17/==/KIULKiul Junction (5)X  18:00+1:3518:25+1:2825m--1131.63653mECRDist. Lakhisarai, Bihar
18!==!DNREDhanauri  18:35+2:1718:37+2:172m--1137.64948mERNational Highway 80, Bihar
19!==!URENUrenX  18:43+2:1718:45+2:162m--1142.55845mERUren, Bihar
20!==!KJHKajra (2)  18:50+2:1718:51+2:171m--1147.36250mERLakhisarai District, Bihar
21|==|AHAAbhaipur (3)  18:58+2:0218:59+2:031m--1154.64852mERAbhaipur, Bihar
22|==|MSDNMasudan (2)  19:04+2:2119:05+2:211m--1158.66045mERMasudan, Bihar
23|==|DRHDharhara (2)  19:11+2:2219:12+2:221m--1164.61855mERDharhara, Bihar
24|==|DRTPDasharathpur (2)  19:30+2:1119:31+2:131m--1170.03248mERDharhara, Bihar
25|=-|JMPJamalpur Junction (4)  19:43+1:2619:58+1:2715m11176.44259mERDist: Munger 06344-243101, Bihar
26|-=|RPURRatanpur (2)  20:07+2:1720:08+2:171m--1182.75846mERRatanpur Railway Station, Bihar
27|==|BUPBariarpur (3)  20:13+2:3720:14+2:411m--1187.51142mERMunger, Bihar
28|==|KPRDKalyanpur Road (3)  20:21+2:2220:22+2:221m--1188.81040mERMunger, Bihar
29|==|GNNAGangani (2)  20:29+2:2320:30+2:231m--1190.013338mERGangania, Bihar
30|==|SGGSultanGanj (3)  20:37+2:0420:40+2:053m--1205.56642mERSultanganj, Bihar
31|==|MVVMaheshi (2) new halt!!  20:46-20:47-1m--1212.14137mERTilakpur, Bihar
32|==|AKNAkbarnagar (3)  20:52+2:2620:53+2:271m--1215.54439mERTilakpur, Bihar
33|==|NATNathnagar (2)  21:01+2:2721:02+2:281m--1225.74048mERBhagalpur, Bihar
34|==!BGPBhagalpur Junction (6)X  21:09+1:4721:19+1:4710m--1230.45049mERBhagalpur, Bihar
35!==!SBOSabaur (3)  21:28+2:2621:29+2:271m--1238.04442mERSabour, Bihar
36!==!LMMLailakh Mamalkha (2)  21:38+2:2821:39+2:311m--1244.65836mERLailakh Mamlkha, Bihar
37!==!GGAGhoga (2)  21:45+2:3321:47+2:362m--1250.46942mERGhoga, Bihar
38!==!EKCEkchari (1)  21:52+2:4021:53+2:401m11256.15237mERNational Highway 80, Bihar
39!==!CLGKahalgaon (2)  21:58+2:4322:00+2:432m11260.54944mERBhagalpur, Bihar
40!==!SVRPShivanarayanpur (2)X  22:14+2:4722:38+2:2924m--1272.04847mERShivanarayanpur, Bihar
41!==!PPTPirpainti (2)  22:49+2:3022:51+2:422m--1280.85653mERBhagalpur, Bihar
42!==!MZCMirza Cheuki (3)X  23:00+2:4423:06+2:416m31289.32638mERBihar, Bihar
43!==!SBGSahibganj Junction (3)X  23:41+2:4123:59+2:4618m11304.45238mERSahibganj, Jharkhand
44!==!SLJSakrigali Junction (3)X  00:08+3:0700:09+3:141m--2312.25345mERSakrigali, Jharkhand
45!==!MJPMaharajpur (2)  00:16+3:1800:17+3:311m--2318.38534mERMoharajpur, Jharkhand
46!==!TLJTaljhari  00:27+3:3600:28+3:451m--2332.55838mERTaljhari, Jharkhand
47!==!KXEKalian Chak  00:33+3:4700:34+3:481m--2337.35845mERKalian Chak, Jharkhand
48!==|TPHTinpahar Junction (3)  00:39+3:5000:42+3:523m22342.15945mERBamangawan, Jharkhand
49|==|BKLEBakudi (3)  00:51+3:5500:52+3:551m--2350.92665mERBakudi, Jharkhand
50|==|BHWBarharwa Junction (3)X  01:10+3:4801:20+3:4910m22358.84436mERBarharwa, Jharkhand
51%==%GMANGumani (3)X  01:30+3:5401:31+3:571m--2366.26731mERGumani, Jharkhand
52%==%KLPKotalpukur (3)XO  01:37+3:0201:39+3:012m--2372.92240mERKotalpukur, Jharkhand
53%==%PKRPakur (2)X  02:10 02:11+2:4102:11 02:16+2:411 5m22384.96337mERDist:- Pakur, Jharkhand
54%==%RJGRajgram (3)  02:26+3:3302:27+3:331m22395.47032mERDist - Birbhum, West Bengal
55%==%MRRMurarai (3)X  02:37+4:0302:38+4:071m--2407.17036mERDist - Birbhum, West Bengal
56%==%NHTNalhati Junction (4)X  02:52+4:1702:54+4:222m22423.42948mERDist - Birbhum, West Bengal
57%==%RPHRampurhat (3)X  03:23+3:4103:43+3:3820m--2437.46741mERDIST - Birbhum, West Bengal
58%==%SNTSainthia Junction (4)  04:08+3:3104:13+3:305m42465.44758mERDist - Birbhum, West Bengal
59%==%AMPAhmadpur Junction (3)O  04:30+4:5004:35 04:32+4:595 2m--2478.72546mERDist - Birbhum, West Bengal
60%==%PNEPrantik (3)  05:08+5:0605:09+5:061m--2493.95148mERDist - Birbhum, West Bengal
61%==%BHPBolpur Shantiniketan (3)  05:14+5:3505:19+5:335m--2498.26059mERDist - Birbhum, West Bengal
62%==%BDHBhedia (2)  05:27+5:0405:28+5:041m--2506.25541mERDist - Bardhaman, West Bengal
63%==%GKHGuskara (2)X  05:40+4:3505:41+4:351m12517.16041mERDist - Bardhaman, West Bengal
64%==%BPSBanpas (3)  05:51+4:3105:52+4:311m--2527.21146mERDist - Bardhaman, West Bengal
65%==/KANKhana Junction (5)X  06:45+4:3106:46+4:311m--2536.85642mERDist - Bardhaman, West Bengal
66/==/BWNBarddhaman Junction (8)XO  07:00+3:3207:20+3:2920m--2549.95034mERDist - Barddhaman, West Bengal
67/==/MYMMemari (4)  07:50+4:0708:00+4:0710m--2575.02225mERMemari, West Bengal
68/==/MUGMagra (3)  09:38+3:3309:43+3:405m--2610.4715mERMagra, West Bengal
69/==/BDCBandel Junction (7)  10:44+2:2310:50+2:236m--2617.23214mERdist - HOOGHLY, West Bengal
70/==/CNSChuchura (3)  10:57-10:58-1m--2620.93615mERDist - HOOGHLY - 712102, West Bengal
71/==/CGRChandan Nagar (3)  11:03+2:2611:05+2:262m--2623.95316mERDist -HOOGHLY - 712136, West Bengal
72/==/SHESeoraphuli Junction (6)  11:17+2:4411:19+2:442m--2634.63013mERBaidyabati, West Bengal
73/==/SRPSerampore (4)X  11:24+3:2211:28+3:214m--2637.12811mERdist - hooghly, West Bengal
74/==/HWHKolkata Howrah Junction (23)•  12:10+2:14-12656.7-10mERHowrah 711101, West Bengal
Scroll to Top
Scroll to Bottom